Leibhardt, New York
Current Conditions -  °F | °C
As of 8:54 AM on Saturday 25 Oct 2014 (Local Time) from KMGJ Reporting Station
Clear Clear  
Wind Chill: 46°   Ceiling: Unl
Heat Index: 49°   Visibility: 10mi
Dew Point: 37°   Wind: 7mph
Humidity: 64%   Direction: 200°SSW
Pressure: 29.84"   Gusts: NA
Location:  41.8083°N, 74.2318°W
Report Text: KMGJ 251254Z AUTO 20006KT 10SM CLR 09/03 A2984 RMK AO2 SLP107 T00940028 TSNO
Loading
Personal Weather Stations






























Interactive Weather Map
Tropical Storm Tracking
New forecast layout! Learn more

10-Day Weather Forecast

Advertisements
Track Severe Weather on mobile